Time;durP1;ratioP1;P1;durP2;ratioP2;P2;SDS_P1;SDS_P2;PMS_P1;PMS_P2;Temp;Humidity;BMP_temperature;BMP_pressure;BME280_temperature;BME280_humidity;BME280_pressure;Samples;Min_cycle;Max_cycle;Signal;HPM_P1;HPM_P2
2022/01/30 00:00:24;;;;;;;17.17;14.77;;;;;;;-3.84;72.63;93161.13;5052035;28;20234;-76
2022/01/30 00:02:53;;;;;;;14.03;12.87;;;;;;;-3.86;72.69;93160.50;5051552;28;20194;-76
2022/01/30 00:05:19;;;;;;;14.80;13.40;;;;;;;-3.77;71.54;93149.25;5050556;28;20222;-77
2022/01/30 00:07:45;;;;;;;14.87;13.53;;;;;;;-3.77;71.93;93144.16;5051859;28;20198;-77
2022/01/30 00:10:13;;;;;;;15.13;13.80;;;;;;;-3.85;71.95;93146.81;5051057;28;20241;-77
2022/01/30 00:12:49;;;;;;;15.73;14.33;;;;;;;-3.94;72.88;93147.09;5051323;28;20190;-75
2022/01/30 00:15:16;;;;;;;14.87;13.63;;;;;;;-3.86;72.56;93144.44;5051804;28;20229;-76
2022/01/30 00:17:48;;;;;;;16.13;14.47;;;;;;;-3.82;71.92;93141.34;5051982;28;20200;-76
2022/01/30 00:20:20;;;;;;;15.60;14.23;;;;;;;-3.87;72.14;93141.09;5052386;28;20230;-76
2022/01/30 00:23:08;;;;;;;13.43;12.10;;;;;;;-4.02;71.30;93114.03;5052237;28;20186;-75
2022/01/30 00:25:45;;;;;;;26.23;18.83;;;;;;;-4.09;71.45;93113.16;5050797;28;20252;-76
2022/01/30 00:28:13;;;;;;;22.37;17.03;;;;;;;-4.87;74.10;93046.75;5051982;28;20240;-76
2022/01/30 00:30:38;;;;;;;18.03;16.13;;;;;;;-4.25;72.83;93103.19;5051398;28;20233;-77
2022/01/30 00:33:04;;;;;;;25.30;19.37;;;;;;;-4.39;71.90;93078.53;5052043;28;20194;-77
2022/01/30 00:35:33;;;;;;;22.63;19.57;;;;;;;-4.37;72.43;93105.38;5053178;28;20285;-77
2022/01/30 00:37:59;;;;;;;20.53;17.80;;;;;;;-4.31;72.69;93109.00;5049551;28;20187;-77
2022/01/30 00:40:25;;;;;;;17.17;15.33;;;;;;;-4.21;72.74;93104.41;5051683;28;20226;-75
2022/01/30 00:42:51;;;;;;;16.10;14.63;;;;;;;-4.22;72.13;93101.09;5051449;28;20241;-75
2022/01/30 00:45:16;;;;;;;14.53;13.33;;;;;;;-4.45;74.32;93105.47;5049352;28;20226;-77
2022/01/30 00:47:42;;;;;;;14.53;13.30;;;;;;;-4.34;72.28;93094.06;5050836;28;20217;-76
2022/01/30 00:50:08;;;;;;;14.70;13.50;;;;;;;-4.37;72.87;93085.00;5051030;28;20226;-76
2022/01/30 00:52:33;;;;;;;13.40;12.10;;;;;;;-4.22;72.90;93102.84;5052072;28;20194;-76
2022/01/30 00:54:58;;;;;;;14.00;12.90;;;;;;;-4.19;72.52;93094.84;5051179;28;20226;-77
2022/01/30 00:57:24;;;;;;;14.00;12.70;;;;;;;-4.22;71.92;93092.63;5051337;28;20198;-76
2022/01/30 00:59:49;;;;;;;14.97;13.77;;;;;;;-4.25;72.16;93098.09;5051623;28;20305;-78
2022/01/30 01:02:16;;;;;;;15.37;14.03;;;;;;;-4.37;71.99;93084.25;5051672;28;20205;-77
2022/01/30 01:04:43;;;;;;;16.57;14.97;;;;;;;-4.34;72.08;93087.19;5050987;28;20293;-76
2022/01/30 01:07:14;;;;;;;15.93;14.50;;;;;;;-4.63;73.00;93083.88;5052796;28;20182;-77
2022/01/30 01:09:41;;;;;;;14.27;13.17;;;;;;;-4.61;73.34;93079.41;5049666;28;21060;-77
2022/01/30 01:25:48;;;;;;;13.20;12.27;;;;;;;-4.68;72.40;93048.75;5051749;28;20264;-76
2022/01/30 01:28:14;;;;;;;14.13;13.13;;;;;;;-4.79;73.03;93033.16;5051805;28;20202;-77
2022/01/30 01:30:39;;;;;;;13.23;12.33;;;;;;;-4.71;72.25;93026.19;5050140;28;20248;-77
2022/01/30 01:33:06;;;;;;;27.00;16.77;;;;;;;-4.62;72.65;93037.09;5050808;28;20202;-77
2022/01/30 01:35:31;;;;;;;62.90;23.87;;;;;;;-4.57;72.49;93027.94;5050306;28;20308;-77
2022/01/30 01:37:57;;;;;;;19.93;13.93;;;;;;;-4.72;73.02;93000.91;5050979;28;20181;-77
2022/01/30 01:40:23;;;;;;;13.67;12.37;;;;;;;-4.75;72.55;92996.97;5050029;28;20253;-76
2022/01/30 01:42:48;;;;;;;13.17;12.07;;;;;;;-4.65;72.89;93006.91;5050943;28;20197;-77
2022/01/30 01:45:19;;;;;;;11.83;10.87;;;;;;;-4.63;72.35;92984.56;5050938;28;20214;-77
2022/01/30 01:47:45;;;;;;;12.23;11.43;;;;;;;-4.57;72.44;93006.75;5050094;28;20201;-76
2022/01/30 01:50:17;;;;;;;12.97;11.93;;;;;;;-4.85;74.71;92996.44;5050989;28;20217;-77
2022/01/30 01:52:43;;;;;;;13.20;12.13;;;;;;;-4.64;73.69;93000.81;5050244;28;20194;-77
2022/01/30 01:55:09;;;;;;;12.63;11.43;;;;;;;-4.80;73.25;92981.44;5049923;28;20224;-77
2022/01/30 01:57:34;;;;;;;13.03;12.03;;;;;;;-4.58;72.07;92995.00;5049845;28;20190;-77
2022/01/30 02:00:00;;;;;;;11.87;11.07;;;;;;;-4.56;71.94;92998.94;5049865;28;20217;-77
2022/01/30 02:02:27;;;;;;;13.10;12.20;;;;;;;-4.63;72.44;92990.47;5050920;28;20210;-76
2022/01/30 02:04:57;;;;;;;13.13;12.10;;;;;;;-4.62;72.64;92991.25;5049614;28;20230;-77
2022/01/30 02:10:04;;;;;;;13.23;12.23;;;;;;;-4.85;72.83;92939.66;5049012;28;21205;-77
2022/01/30 02:12:43;;;;;;;13.83;12.53;;;;;;;-4.71;73.30;92972.72;5050392;28;20201;-77
2022/01/30 02:23:59;;;;;;;13.30;12.27;;;;;;;-4.68;72.14;92971.56;5049056;28;20256;-77
2022/01/30 02:26:18;;;;;;;12.17;11.27;;;;;;;-4.88;72.69;92962.91;5049778;28;20228;-77
2022/01/30 02:28:43;;;;;;;13.30;12.23;;;;;;;-4.90;73.46;92972.50;5050346;28;20186;-77
2022/01/30 02:31:13;;;;;;;12.27;11.33;;;;;;;-4.93;72.74;92954.06;5049605;28;20189;-77
2022/01/30 02:33:40;;;;;;;12.17;11.37;;;;;;;-4.94;73.51;92969.53;5050792;28;20186;-76
2022/01/30 02:36:06;;;;;;;13.53;12.53;;;;;;;-4.78;72.20;92966.78;5049620;28;20182;-77
2022/01/30 02:38:31;;;;;;;14.43;13.03;;;;;;;-4.84;72.87;92953.97;5049722;28;20200;-77
2022/01/30 02:40:58;;;;;;;12.13;11.10;;;;;;;-4.88;72.13;92938.25;5048154;28;20225;-77
2022/01/30 02:43:30;;;;;;;13.60;12.43;;;;;;;-5.08;73.29;92942.31;5050712;28;20205;-76
2022/01/30 02:46:10;;;;;;;12.40;11.53;;;;;;;-5.27;74.95;92912.34;5049859;28;20692;-76
2022/01/30 02:49:13;;;;;;;11.60;10.80;;;;;;;-5.42;74.05;92927.63;5049426;28;20196;-77
2022/01/30 02:51:35;;;;;;;11.63;10.93;;;;;;;-5.26;72.78;92909.59;5049175;28;20277;-77
2022/01/30 02:54:05;;;;;;;10.40;9.80;;;;;;;-5.20;71.72;92898.72;5047998;28;20268;-76
2022/01/30 02:56:31;;;;;;;12.63;11.60;;;;;;;-5.18;71.79;92927.31;5048245;28;20206;-77
2022/01/30 02:58:56;;;;;;;12.60;11.60;;;;;;;-5.27;72.95;92920.75;5048840;28;20259;-77
2022/01/30 03:01:21;;;;;;;13.20;12.10;;;;;;;-5.27;73.29;92920.75;5049331;28;21180;-77
2022/01/30 03:03:47;;;;;;;13.53;12.53;;;;;;;-5.14;72.25;92923.47;5049456;28;20254;-78
2022/01/30 03:06:12;;;;;;;12.37;11.37;;;;;;;-5.28;72.76;92931.91;5049022;28;20178;-77
2022/01/30 03:08:38;;;;;;;13.37;12.37;;;;;;;-5.42;73.92;92921.72;5048462;28;20221;-77
2022/01/30 03:11:04;;;;;;;34.37;23.93;;;;;;;-5.21;73.29;92922.59;5048895;28;20192;-76
2022/01/30 03:13:30;;;;;;;49.80;28.27;;;;;;;-5.11;72.80;92920.59;5047906;28;20207;-76
2022/01/30 03:15:56;;;;;;;32.90;22.87;;;;;;;-5.24;72.62;92904.34;5047242;28;20250;-77
2022/01/30 03:18:21;;;;;;;22.57;17.43;;;;;;;-5.26;73.27;92911.38;5049009;28;20208;-77
2022/01/30 03:20:48;;;;;;;18.03;16.33;;;;;;;-5.18;72.35;92913.81;5047864;28;21866;-79
2022/01/30 03:23:13;;;;;;;21.00;17.47;;;;;;;-5.27;73.93;92908.03;5049866;28;20194;-78
2022/01/30 03:25:39;;;;;;;17.37;15.57;;;;;;;-5.28;72.91;92901.38;5049761;28;20268;-75
2022/01/30 03:28:05;;;;;;;15.20;13.70;;;;;;;-5.25;72.74;92916.28;5049300;28;20193;-76
2022/01/30 03:30:31;;;;;;;13.50;12.27;;;;;;;-5.34;72.90;92930.03;5048942;28;20229;-76
2022/01/30 03:32:57;;;;;;;23.07;17.40;;;;;;;-5.35;72.91;92917.50;5049417;28;20264;-78
2022/01/30 03:35:23;;;;;;;20.13;16.43;;;;;;;-5.23;73.07;92918.66;5049280;28;20230;-77
2022/01/30 03:37:48;;;;;;;19.57;16.80;;;;;;;-5.31;73.26;92906.81;5048929;28;20193;-77
2022/01/30 03:40:14;;;;;;;18.43;14.80;;;;;;;-5.11;73.90;92932.50;5047311;28;20233;-77
2022/01/30 03:42:40;;;;;;;19.00;14.93;;;;;;;-5.19;73.80;92918.13;5049454;28;20197;-77
2022/01/30 03:45:06;;;;;;;18.33;16.47;;;;;;;-5.26;73.69;92912.16;5048285;28;20232;-77
2022/01/30 03:47:32;;;;;;;24.47;18.03;;;;;;;-5.16;73.28;92930.50;5049041;28;20228;-77
2022/01/30 03:49:57;;;;;;;24.60;19.33;;;;;;;-5.12;73.69;92936.78;5048659;28;20222;-77
2022/01/30 03:52:23;;;;;;;28.20;18.47;;;;;;;-5.43;73.71;92887.09;5049074;28;20225;-82
2022/01/30 03:54:48;;;;;;;23.83;18.47;;;;;;;-5.19;73.80;92915.59;5048767;28;20246;-81
2022/01/30 03:57:14;;;;;;;27.70;17.90;;;;;;;-5.31;73.44;92889.00;5049037;28;20238;-80
2022/01/30 03:59:39;;;;;;;20.60;16.00;;;;;;;-5.19;73.79;92910.50;5048550;28;20256;-81
2022/01/30 04:02:05;;;;;;;15.83;14.20;;;;;;;-5.33;73.05;92897.78;5049141;28;20182;-80
2022/01/30 04:04:33;;;;;;;16.97;14.97;;;;;;;-5.22;73.37;92908.31;5048839;28;20241;-80
2022/01/30 04:07:00;;;;;;;14.90;13.40;;;;;;;-5.54;73.71;92869.75;5047712;28;20198;-80
2022/01/30 04:09:27;;;;;;;14.47;12.97;;;;;;;-5.38;74.00;92913.56;5048759;28;20237;-79
2022/01/30 04:11:53;;;;;;;15.60;14.10;;;;;;;-5.33;73.56;92898.56;5045938;28;20197;-80
2022/01/30 04:14:19;;;;;;;12.80;11.70;;;;;;;-5.54;73.98;92869.75;5047611;28;20237;-81
2022/01/30 04:16:45;;;;;;;12.97;11.77;;;;;;;-5.35;73.83;92895.41;5047781;28;20194;-81
2022/01/30 04:19:11;;;;;;;14.00;12.73;;;;;;;-5.65;73.57;92847.31;5047915;28;20230;-81
2022/01/30 04:21:36;;;;;;;13.93;12.73;;;;;;;-5.81;75.28;92866.06;5051401;28;20213;-80
2022/01/30 04:24:03;;;;;;;13.00;11.70;;;;;;;-5.79;75.32;92853.94;5051403;28;20229;-81
2022/01/30 04:26:28;;;;;;;12.67;11.70;;;;;;;-5.60;74.02;92843.25;5051322;28;20266;-81
2022/01/30 04:28:54;;;;;;;14.10;12.23;;;;;;;-5.43;73.66;92867.53;5050936;28;20485;-82
2022/01/30 04:31:20;;;;;;;13.80;11.63;;;;;;;-5.44;73.53;92843.06;5051279;28;20247;-81
2022/01/30 04:33:45;;;;;;;13.67;12.50;;;;;;;-5.46;73.94;92834.81;5052196;28;20194;-81
2022/01/30 04:36:16;;;;;;;14.90;13.30;;;;;;;-5.55;74.68;92825.72;5051637;28;20202;-81
2022/01/30 04:39:10;;;;;;;12.87;11.80;;;;;;;-5.53;75.02;92789.94;5051698;28;20236;-81
2022/01/30 04:41:59;;;;;;;12.67;11.57;;;;;;;-5.43;74.68;92793.78;5052034;28;20237;-81
2022/01/30 04:58:00;;;;;;;15.83;14.23;;;;;;;-5.61;75.95;92823.88;5051168;28;20220;-82
2022/01/30 05:00:36;;;;;;;17.23;15.57;;;;;;;-5.52;75.80;92840.63;5051195;28;20251;-80
2022/01/30 05:03:27;;;;;;;18.90;15.30;;;;;;;-5.28;75.99;92864.97;5065870;28;20269;-80
2022/01/30 05:05:59;;;;;;;22.07;16.47;;;;;;;-5.27;76.66;92869.09;5050344;28;20228;-80
2022/01/30 05:08:25;;;;;;;18.40;15.03;;;;;;;-5.16;75.93;92873.72;5082964;28;20204;-80
2022/01/30 05:10:52;;;;;;;18.43;16.30;;;;;;;-5.11;76.28;92862.06;5050698;28;20225;-77
2022/01/30 05:13:21;;;;;;;19.03;16.17;;;;;;;-5.00;74.92;92859.03;5046229;28;20221;-78
2022/01/30 05:15:47;;;;;;;17.40;15.77;;;;;;;-5.14;75.75;92815.81;5050256;28;20214;-79
2022/01/30 05:18:18;;;;;;;18.17;15.67;;;;;;;-4.93;75.25;92803.91;5046857;28;20195;-78
2022/01/30 05:20:44;;;;;;;16.63;15.07;;;;;;;-5.24;76.39;92765.22;5049249;28;20248;-77
2022/01/30 05:23:10;;;;;;;18.10;16.30;;;;;;;-5.21;76.89;92769.94;5050277;28;20194;-78
2022/01/30 05:25:35;;;;;;;15.37;13.87;;;;;;;-4.82;74.55;92758.56;5048416;28;20221;-78
2022/01/30 05:28:02;;;;;;;15.77;14.40;;;;;;;-5.16;74.55;92706.59;5050352;28;20201;-79
2022/01/30 05:30:27;;;;;;;14.73;13.53;;;;;;;-4.64;73.42;92741.88;5050476;28;20248;-78
2022/01/30 05:32:53;;;;;;;15.07;13.57;;;;;;;-4.67;74.22;92741.47;5048787;28;20269;-79
2022/01/30 05:35:19;;;;;;;17.87;16.27;;;;;;;-4.64;73.80;92746.19;5049068;28;20248;-77
2022/01/30 05:37:45;;;;;;;17.97;16.07;;;;;;;-4.75;74.93;92755.09;5049313;28;20194;-77
2022/01/30 05:40:11;;;;;;;17.00;15.37;;;;;;;-4.69;73.47;92781.59;5048446;28;20233;-77
2022/01/30 05:42:38;;;;;;;15.70;14.27;;;;;;;-4.28;72.59;92785.03;5049570;28;20198;-79
2022/01/30 05:47:40;;;;;;;16.93;15.53;;;;;;;-4.31;73.11;92813.44;5048031;28;20269;-80
2022/01/30 05:50:06;;;;;;;15.97;14.47;;;;;;;-4.02;71.38;92813.25;5047661;28;20210;-80
2022/01/30 05:52:32;;;;;;;15.83;14.33;;;;;;;-4.53;71.55;92764.31;5050528;28;20182;-79
2022/01/30 05:54:57;;;;;;;15.53;13.90;;;;;;;-3.95;72.33;92837.00;5047475;28;20226;-82
2022/01/30 05:57:22;;;;;;;19.23;16.57;;;;;;;-3.76;71.86;92841.44;5065201;28;20205;-81
2022/01/30 05:59:48;;;;;;;17.93;15.17;;;;;;;-3.39;71.07;92825.75;5047112;28;20225;-81
2022/01/30 06:02:13;;;;;;;19.43;17.27;;;;;;;-3.33;71.30;92830.88;5048853;28;20201;-81
2022/01/30 06:04:39;;;;;;;18.37;16.47;;;;;;;-3.61;72.55;92798.78;5048472;28;20221;-83
2022/01/30 06:07:06;;;;;;;18.97;16.97;;;;;;;-3.53;73.01;92803.69;5047957;28;20186;-84
2022/01/30 06:09:32;;;;;;;18.77;16.87;;;;;;;-3.50;73.00;92772.72;5046479;28;20249;-84
2022/01/30 06:11:57;;;;;;;20.70;17.50;;;;;;;-3.63;73.18;92783.63;5045730;28;20193;-80
2022/01/30 06:14:23;;;;;;;23.63;16.57;;;;;;;-3.81;74.15;92785.13;5049162;28;20222;-80
2022/01/30 06:16:53;;;;;;;20.90;17.03;;;;;;;-3.46;73.32;92771.38;5048631;28;20212;-77
2022/01/30 06:19:19;;;;;;;19.07;15.10;;;;;;;-3.31;73.67;92772.00;5047638;28;20229;-79
2022/01/30 06:21:46;;;;;;;20.90;17.03;;;;;;;-3.41;74.55;92774.91;5059357;28;20222;-78
2022/01/30 06:24:11;;;;;;;27.00;18.87;;;;;;;-3.15;72.62;92735.13;5045447;28;20222;-78
2022/01/30 06:26:37;;;;;;;22.83;20.07;;;;;;;-3.09;71.64;92730.03;5048500;28;20190;-77
2022/01/30 06:29:02;;;;;;;27.87;19.27;;;;;;;-3.01;71.92;92727.31;5046890;28;20253;-76
2022/01/30 06:31:28;;;;;;;36.60;24.53;;;;;;;-3.01;71.45;92716.31;5049386;28;20201;-75
2022/01/30 06:33:54;;;;;;;38.40;24.53;;;;;;;-3.16;71.03;92744.56;5049276;28;20229;-78
2022/01/30 06:36:19;;;;;;;27.70;20.20;;;;;;;-3.15;71.09;92735.94;5047460;28;20186;-80
2022/01/30 06:38:44;;;;;;;23.17;20.73;;;;;;;-2.67;70.04;92736.56;5048991;28;20220;-78
2022/01/30 06:41:10;;;;;;;23.70;20.47;;;;;;;-2.94;69.95;92743.41;5047815;28;20399;-77
2022/01/30 06:43:35;;;;;;;22.00;19.70;;;;;;;-2.78;70.05;92743.03;5047299;28;20189;-76
2022/01/30 06:46:02;;;;;;;23.73;17.30;;;;;;;-2.86;70.13;92750.13;5049272;28;20886;-77
2022/01/30 06:48:28;;;;;;;21.53;18.30;;;;;;;-2.72;70.57;92767.00;5047090;28;20194;-77
2022/01/30 06:50:53;;;;;;;26.30;19.57;;;;;;;-2.76;70.77;92761.53;5047819;28;20220;-75
2022/01/30 06:53:19;;;;;;;27.73;19.10;;;;;;;-2.68;69.43;92812.44;5047029;28;20209;-77
2022/01/30 06:55:44;;;;;;;23.40;18.40;;;;;;;-2.94;71.35;92794.47;5047401;28;20245;-78
2022/01/30 06:58:11;;;;;;;26.53;20.50;;;;;;;-2.67;70.26;92810.66;5048145;28;20194;-77
2022/01/30 07:00:37;;;;;;;26.00;19.97;;;;;;;-2.68;70.98;92779.22;5046632;28;20230;-75
2022/01/30 07:03:04;;;;;;;23.27;19.97;;;;;;;-2.74;71.10;92777.41;5048237;28;20220;-77
2022/01/30 07:05:30;;;;;;;24.63;20.00;;;;;;;-2.61;71.33;92738.31;5046311;28;20214;-77
2022/01/30 07:07:55;;;;;;;24.73;22.10;;;;;;;-2.26;70.52;92737.16;5046352;28;20201;-75
2022/01/30 07:10:21;;;;;;;28.47;20.37;;;;;;;-2.08;69.28;92748.34;5046699;28;20244;-77
2022/01/30 07:12:47;;;;;;;35.27;22.30;;;;;;;-2.07;68.49;92756.81;5048100;28;20252;-76
2022/01/30 07:15:14;;;;;;;24.57;19.90;;;;;;;-1.99;67.52;92759.13;5047974;28;20218;-76
2022/01/30 07:17:39;;;;;;;24.23;19.13;;;;;;;-2.07;66.50;92764.47;5048086;28;20194;-78
2022/01/30 07:20:06;;;;;;;33.27;20.73;;;;;;;-2.27;66.99;92748.34;5049046;28;20241;-86
2022/01/30 07:22:31;;;;;;;26.87;21.13;;;;;;;-2.02;67.11;92744.97;5047054;28;20718;-85
2022/01/30 07:24:57;;;;;;;30.23;21.57;;;;;;;-1.97;67.99;92741.81;5047093;28;20222;-84
2022/01/30 07:27:23;;;;;;;27.80;20.50;;;;;;;-1.98;67.26;92764.03;5048310;28;20911;-84
2022/01/30 07:29:48;;;;;;;23.00;18.70;;;;;;;-2.14;66.46;92725.31;5045865;28;20234;-88
2022/01/30 07:32:14;;;;;;;21.77;19.43;;;;;;;-1.59;65.80;92764.94;5049206;28;20281;-81
2022/01/30 07:34:39;;;;;;;20.67;17.87;;;;;;;-1.21;65.05;92776.81;5046750;28;20317;-79
2022/01/30 07:37:05;;;;;;;21.37;18.93;;;;;;;-1.25;64.93;92749.25;5047304;28;20189;-81
2022/01/30 07:39:32;;;;;;;21.90;17.97;;;;;;;-0.98;65.36;92776.31;5046066;28;20229;-79
2022/01/30 07:41:58;;;;;;;21.47;18.17;;;;;;;-1.07;64.92;92768.06;5047222;28;20213;-77
2022/01/30 07:44:24;;;;;;;21.27;17.23;;;;;;;-1.05;65.13;92770.44;5048352;28;20230;-77
2022/01/30 07:46:50;;;;;;;23.20;18.43;;;;;;;-1.15;64.00;92788.03;5047460;28;20190;-77
2022/01/30 07:49:16;;;;;;;22.23;17.20;;;;;;;-1.13;63.99;92791.16;5047335;28;20226;-77
2022/01/30 07:51:41;;;;;;;25.20;19.20;;;;;;;-1.16;64.51;92771.88;5047428;28;20209;-80
2022/01/30 07:54:06;;;;;;;25.90;20.40;;;;;;;-1.32;65.60;92771.56;5044278;28;20293;-79
2022/01/30 07:56:32;;;;;;;25.73;19.97;;;;;;;-1.20;64.59;92760.47;5031417;28;20202;-79
2022/01/30 07:58:57;;;;;;;22.57;19.83;;;;;;;-0.73;64.22;92777.16;5034819;28;20229;-76
2022/01/30 08:01:23;;;;;;;26.20;19.20;;;;;;;-0.89;63.02;92736.66;5051030;28;20224;-76
2022/01/30 08:03:49;;;;;;;22.77;19.57;;;;;;;-0.95;64.30;92758.75;5048726;28;20248;-76
2022/01/30 08:06:14;;;;;;;27.53;19.57;;;;;;;-0.76;63.92;92739.13;5050726;28;20178;-75
2022/01/30 08:08:39;;;;;;;27.30;19.07;;;;;;;-1.03;63.53;92710.34;5048844;28;20192;-76
2022/01/30 08:11:08;;;;;;;25.97;18.60;;;;;;;-1.34;63.64;92718.00;5051094;28;20194;-76
2022/01/30 08:13:33;;;;;;;26.97;18.90;;;;;;;-1.34;64.14;92712.06;5050318;28;20194;-75
2022/01/30 08:15:59;;;;;;;27.37;20.50;;;;;;;-1.16;64.30;92707.84;5050656;28;20193;-74
2022/01/30 08:18:25;;;;;;;23.17;18.60;;;;;;;-1.21;63.52;92712.78;5050706;28;20217;-77
2022/01/30 08:20:50;;;;;;;26.37;19.73;;;;;;;-1.01;64.95;92702.44;5047526;28;20221;-75
2022/01/30 08:23:18;;;;;;;27.00;19.10;;;;;;;-1.17;63.89;92708.03;5050798;28;20170;-75
2022/01/30 08:25:44;;;;;;;21.07;18.33;;;;;;;-1.09;63.59;92720.63;5046654;28;20260;-73
2022/01/30 08:28:10;;;;;;;24.80;20.40;;;;;;;-1.13;64.46;92732.25;5048949;28;20186;-74
2022/01/30 08:30:36;;;;;;;27.70;19.73;;;;;;;-0.81;63.03;92744.09;5049793;28;20253;-74
2022/01/30 08:33:02;;;;;;;26.07;18.90;;;;;;;-0.58;62.07;92731.50;5048157;28;20190;-75
2022/01/30 08:35:29;;;;;;;22.23;17.77;;;;;;;-0.76;63.35;92759.63;5049463;28;20241;-77
2022/01/30 08:37:56;;;;;;;22.93;19.07;;;;;;;-1.22;63.80;92729.16;5047021;28;20194;-75
2022/01/30 08:40:22;;;;;;;25.47;17.57;;;;;;;-1.08;63.53;92737.53;5048855;28;20233;-76
2022/01/30 08:42:49;;;;;;;22.30;18.67;;;;;;;-1.42;64.53;92690.06;5049565;28;20221;-76
2022/01/30 08:45:17;;;;;;;23.10;19.03;;;;;;;-0.96;63.68;92730.75;5045178;28;20237;-75
2022/01/30 08:47:44;;;;;;;20.33;18.33;;;;;;;-0.88;62.80;92733.09;5048774;28;21256;-74
2022/01/30 08:50:11;;;;;;;28.20;19.17;;;;;;;-1.04;62.78;92711.31;5036127;28;20295;-78
2022/01/30 08:52:37;;;;;;;25.43;20.00;;;;;;;-0.87;62.97;92750.06;5031668;28;20187;-76
2022/01/30 08:55:05;;;;;;;22.20;19.37;;;;;;;-0.78;64.00;92756.50;5030346;28;20238;-77
2022/01/30 08:57:30;;;;;;;22.03;17.50;;;;;;;-0.70;63.47;92741.63;5031542;28;20195;-75
2022/01/30 08:59:58;;;;;;;29.27;19.40;;;;;;;-0.58;62.07;92757.16;5041234;28;20224;-76
2022/01/30 09:02:24;;;;;;;23.93;19.53;;;;;;;-0.46;61.72;92758.03;5049226;28;20217;-81
2022/01/30 09:04:50;;;;;;;23.90;21.50;;;;;;;-0.10;61.61;92766.63;5049790;28;20346;-78
2022/01/30 09:07:16;;;;;;;28.10;21.13;;;;;;;-0.17;61.44;92718.94;5049349;28;20190;-79
2022/01/30 09:09:41;;;;;;;37.77;22.13;;;;;;;0.16;61.70;92750.19;5050364;28;20233;-83
2022/01/30 09:12:07;;;;;;;26.87;19.23;;;;;;;0.69;59.79;92758.91;5049428;28;20242;-81
2022/01/30 09:14:33;;;;;;;31.00;21.77;;;;;;;0.74;59.44;92750.56;5081267;28;20234;-81
2022/01/30 09:16:58;;;;;;;27.00;20.07;;;;;;;0.69;59.23;92761.50;5050063;28;20182;-81
2022/01/30 09:19:24;;;;;;;28.23;21.30;;;;;;;1.10;58.53;92750.50;5046577;28;20218;-84
2022/01/30 09:21:51;;;;;;;25.37;20.07;;;;;;;0.76;58.42;92748.56;5051019;28;21064;-77
2022/01/30 09:24:17;;;;;;;24.90;20.53;;;;;;;0.59;59.09;92775.84;5047623;28;20209;-77
2022/01/30 09:26:43;;;;;;;25.67;20.60;;;;;;;0.11;59.04;92744.16;5050301;28;20222;-78
2022/01/30 09:29:08;;;;;;;28.37;19.87;;;;;;;-0.14;59.86;92770.59;5047807;28;20218;-77
2022/01/30 09:31:34;;;;;;;27.70;20.87;;;;;;;-0.53;61.66;92716.28;5047745;28;20209;-77
2022/01/30 09:33:59;;;;;;;28.17;22.53;;;;;;;-0.44;62.45;92705.56;5047925;28;20242;-77
2022/01/30 09:36:24;;;;;;;32.60;21.57;;;;;;;-0.13;61.76;92718.31;5049562;28;20229;-77
2022/01/30 09:38:50;;;;;;;26.87;20.13;;;;;;;-0.10;60.77;92711.97;5048489;28;20293;-77
2022/01/30 09:41:16;;;;;;;26.67;20.17;;;;;;;-0.05;61.39;92699.31;5049219;28;20277;-75
2022/01/30 09:43:44;;;;;;;32.33;19.60;;;;;;;-0.02;60.54;92693.75;5045960;28;20206;-74
2022/01/30 09:46:10;;;;;;;35.33;21.77;;;;;;;-0.25;61.09;92662.78;5050243;28;20269;-75
2022/01/30 09:48:38;;;;;;;26.43;20.30;;;;;;;0.02;60.91;92678.72;5047983;28;20205;-75
2022/01/30 09:51:12;;;;;;;24.33;18.97;;;;;;;0.16;60.49;92657.81;5050055;28;20198;-77
2022/01/30 09:53:39;;;;;;;28.90;20.90;;;;;;;0.26;61.65;92642.69;5046606;28;20355;-75
2022/01/30 09:56:06;;;;;;;35.73;21.80;;;;;;;0.46;59.28;92652.72;5049195;28;20193;-76
2022/01/30 09:58:32;;;;;;;26.73;19.27;;;;;;;0.15;59.39;92633.16;5049481;28;20190;-75
2022/01/30 10:00:58;;;;;;;23.97;20.13;;;;;;;0.06;59.41;92616.47;5049682;28;20225;-74
2022/01/30 10:03:28;;;;;;;19.60;17.60;;;;;;;0.41;58.40;92652.56;5048705;28;20217;-81
2022/01/30 10:06:06;;;;;;;19.50;17.43;;;;;;;0.52;57.75;92633.88;5047789;28;20285;-77
2022/01/30 10:08:32;;;;;;;26.07;20.33;;;;;;;0.43;57.28;92625.69;5048740;28;20201;-77
2022/01/30 10:11:15;;;;;;;19.87;17.43;;;;;;;0.58;57.73;92638.94;5048396;28;20214;-73
2022/01/30 10:13:42;;;;;;;26.87;18.57;;;;;;;0.64;57.36;92648.31;5047335;28;20217;-77
2022/01/30 10:16:08;;;;;;;22.87;18.70;;;;;;;0.56;57.39;92620.38;5048890;28;20225;-77
2022/01/30 10:18:43;;;;;;;21.27;16.90;;;;;;;0.56;57.04;92610.09;5045428;28;20668;-76
2022/01/30 10:21:20;;;;;;;21.57;17.67;;;;;;;0.85;56.71;92639.34;5030040;28;20202;-77
2022/01/30 10:23:45;;;;;;;26.73;18.00;;;;;;;0.94;56.04;92648.31;5031988;28;20191;-76
2022/01/30 10:26:18;;;;;;;27.13;18.33;;;;;;;0.83;56.72;92626.72;5049611;28;20201;-77
2022/01/30 10:28:44;;;;;;;25.40;16.30;;;;;;;1.28;55.67;92666.38;5048631;28;20193;-76
2022/01/30 10:31:10;;;;;;;25.07;18.57;;;;;;;1.11;56.00;92660.31;5049788;28;20186;-75
2022/01/30 10:33:51;;;;;;;27.63;18.53;;;;;;;0.80;56.49;92622.03;5047117;28;20185;-74
2022/01/30 10:36:30;;;;;;;22.43;19.57;;;;;;;1.17;56.45;92644.00;5047667;28;20232;-77
2022/01/30 10:39:04;;;;;;;24.57;17.90;;;;;;;1.37;54.19;92631.63;5048147;28;20262;-74
2022/01/30 10:41:41;;;;;;;27.53;18.30;;;;;;;1.48;55.35;92630.84;5047831;28;20213;-72
2022/01/30 10:44:08;;;;;;;22.57;17.00;;;;;;;1.62;54.13;92626.28;5046683;28;20236;-73
2022/01/30 10:46:48;;;;;;;28.80;17.57;;;;;;;1.88;55.11;92625.03;5047346;28;20198;-75
2022/01/30 10:49:15;;;;;;;19.07;16.90;;;;;;;1.88;54.84;92586.44;5046367;28;20237;-81
2022/01/30 10:51:52;;;;;;;21.50;17.13;;;;;;;2.01;57.22;92599.06;5048715;28;20206;-82
2022/01/30 10:54:17;;;;;;;20.93;17.33;;;;;;;1.89;53.91;92550.19;5046954;28;20238;-81
2022/01/30 10:56:43;;;;;;;21.97;15.80;;;;;;;1.75;52.87;92522.34;5047034;28;20193;-82
2022/01/30 10:59:11;;;;;;;24.60;18.17;;;;;;;2.06;53.36;92569.03;5046425;28;20229;-83
2022/01/30 11:01:42;;;;;;;23.30;19.20;;;;;;;2.13;53.24;92571.50;5046628;28;20274;-83
2022/01/30 11:04:21;;;;;;;25.83;18.47;;;;;;;2.26;53.46;92566.06;5046178;28;20225;-78
2022/01/30 11:06:47;;;;;;;27.17;19.63;;;;;;;2.08;52.75;92553.38;5045851;28;20198;-78
2022/01/30 11:09:17;;;;;;;27.73;18.80;;;;;;;2.12;53.76;92578.44;5047653;28;20318;-78
2022/01/30 11:11:48;;;;;;;24.57;16.87;;;;;;;1.92;52.94;92534.28;5045487;28;20209;-78
2022/01/30 11:14:16;;;;;;;22.57;16.10;;;;;;;2.14;53.51;92565.31;5043306;28;20225;-74
2022/01/30 11:16:57;;;;;;;22.43;16.17;;;;;;;2.32;55.42;92567.75;5045626;28;20213;-83
2022/01/30 11:19:23;;;;;;;19.10;17.10;;;;;;;2.63;53.09;92536.34;5046094;28;20249;-79
2022/01/30 11:22:19;;;;;;;20.03;18.00;;;;;;;2.61;52.43;92535.81;5044168;28;20222;-79
2022/01/30 11:24:54;;;;;;;22.27;16.40;;;;;;;2.62;52.39;92527.03;5045706;28;20233;-78
2022/01/30 11:27:22;;;;;;;19.10;16.67;;;;;;;2.75;52.73;92519.03;5047083;28;20213;-79
2022/01/30 11:29:50;;;;;;;21.77;18.97;;;;;;;2.82;51.70;92529.94;5048639;28;20244;-74
2022/01/30 11:32:16;;;;;;;21.67;18.53;;;;;;;3.15;51.93;92551.38;5050936;28;20189;-79
2022/01/30 11:34:43;;;;;;;22.30;17.40;;;;;;;3.09;50.82;92541.22;5050339;28;20237;-81
2022/01/30 11:37:15;;;;;;;19.87;17.70;;;;;;;3.41;50.91;92544.03;5052082;28;20182;-79
2022/01/30 11:39:44;;;;;;;25.40;16.33;;;;;;;3.80;51.18;92574.00;5049444;28;20704;-74
2022/01/30 11:42:14;;;;;;;26.70;16.53;;;;;;;3.86;49.76;92567.88;5051608;28;20196;-75
2022/01/30 11:44:41;;;;;;;27.10;18.10;;;;;;;3.43;50.47;92516.16;5050470;28;20249;-74
2022/01/30 11:47:08;;;;;;;20.73;17.17;;;;;;;3.68;50.09;92556.00;5052016;28;20198;-73
2022/01/30 11:49:42;;;;;;;19.80;17.73;;;;;;;3.61;50.56;92537.31;5052039;28;20237;-74
2022/01/30 11:52:10;;;;;;;20.70;17.47;;;;;;;3.95;50.51;92531.06;5051837;28;20201;-81
2022/01/30 11:54:44;;;;;;;21.60;17.80;;;;;;;4.17;49.78;92534.41;5051426;28;20274;-78
2022/01/30 11:57:21;;;;;;;22.63;18.27;;;;;;;4.37;49.30;92533.88;5051654;28;20847;-79
2022/01/30 12:00:00;;;;;;;24.30;18.30;;;;;;;4.12;50.01;92521.47;5049857;28;20241;-74
2022/01/30 12:02:36;;;;;;;24.73;19.47;;;;;;;3.97;50.17;92513.53;5052598;28;20205;-75